sensor_id;sensor_type;location;lat;lon;timestamp;P1;durP1;ratioP1;P2;durP2;ratioP2
19543;SDS011;9917;51.256;7.152;2023-02-18T00:00:03;18.60;;;11.30;;
19543;SDS011;9917;51.256;7.152;2023-02-18T00:02:31;15.40;;;10.77;;
19543;SDS011;9917;51.256;7.152;2023-02-18T00:04:58;17.20;;;11.27;;
19543;SDS011;9917;51.256;7.152;2023-02-18T00:07:23;20.33;;;11.13;;
19543;SDS011;9917;51.256;7.152;2023-02-18T00:09:49;17.97;;;11.53;;
19543;SDS011;9917;51.256;7.152;2023-02-18T00:12:15;17.58;;;11.15;;
19543;SDS011;9917;51.256;7.152;2023-02-18T00:14:43;21.90;;;12.00;;
19543;SDS011;9917;51.256;7.152;2023-02-18T00:17:09;17.43;;;10.90;;
19543;SDS011;9917;51.256;7.152;2023-02-18T00:19:36;19.07;;;11.47;;
19543;SDS011;9917;51.256;7.152;2023-02-18T00:22:03;23.70;;;13.07;;
19543;SDS011;9917;51.256;7.152;2023-02-18T00:24:29;18.90;;;12.40;;
19543;SDS011;9917;51.256;7.152;2023-02-18T00:26:55;19.07;;;11.30;;
19543;SDS011;9917;51.256;7.152;2023-02-18T00:29:21;19.67;;;11.70;;
19543;SDS011;9917;51.256;7.152;2023-02-18T00:31:47;21.73;;;11.50;;
19543;SDS011;9917;51.256;7.152;2023-02-18T00:34:12;18.10;;;11.50;;
19543;SDS011;9917;51.256;7.152;2023-02-18T00:36:38;18.60;;;11.80;;
19543;SDS011;9917;51.256;7.152;2023-02-18T00:39:12;18.00;;;11.70;;
19543;SDS011;9917;51.256;7.152;2023-02-18T00:41:38;19.95;;;12.23;;
19543;SDS011;9917;51.256;7.152;2023-02-18T00:44:04;18.17;;;12.73;;
19543;SDS011;9917;51.256;7.152;2023-02-18T00:46:31;16.27;;;11.43;;
19543;SDS011;9917;51.256;7.152;2023-02-18T00:48:57;24.40;;;12.90;;
19543;SDS011;9917;51.256;7.152;2023-02-18T00:51:23;23.47;;;13.77;;
19543;SDS011;9917;51.256;7.152;2023-02-18T00:53:49;18.40;;;12.03;;
19543;SDS011;9917;51.256;7.152;2023-02-18T00:56:16;38.10;;;21.97;;
19543;SDS011;9917;51.256;7.152;2023-02-18T00:58:42;19.83;;;12.63;;
19543;SDS011;9917;51.256;7.152;2023-02-18T01:01:08;20.67;;;13.73;;
19543;SDS011;9917;51.256;7.152;2023-02-18T01:03:35;21.63;;;13.17;;
19543;SDS011;9917;51.256;7.152;2023-02-18T01:06:02;22.87;;;13.43;;
19543;SDS011;9917;51.256;7.152;2023-02-18T01:08:31;22.37;;;14.17;;
19543;SDS011;9917;51.256;7.152;2023-02-18T01:10:57;22.13;;;13.63;;
19543;SDS011;9917;51.256;7.152;2023-02-18T01:13:25;25.27;;;14.10;;
19543;SDS011;9917;51.256;7.152;2023-02-18T01:15:52;24.27;;;14.50;;
19543;SDS011;9917;51.256;7.152;2023-02-18T01:18:18;22.27;;;13.80;;
19543;SDS011;9917;51.256;7.152;2023-02-18T01:20:45;25.67;;;13.40;;
19543;SDS011;9917;51.256;7.152;2023-02-18T01:23:11;22.30;;;13.93;;
19543;SDS011;9917;51.256;7.152;2023-02-18T01:25:38;22.03;;;14.23;;
19543;SDS011;9917;51.256;7.152;2023-02-18T01:28:05;21.77;;;14.63;;
19543;SDS011;9917;51.256;7.152;2023-02-18T01:30:33;27.23;;;14.83;;
19543;SDS011;9917;51.256;7.152;2023-02-18T01:32:59;22.37;;;14.63;;
19543;SDS011;9917;51.256;7.152;2023-02-18T01:35:25;24.70;;;14.40;;
19543;SDS011;9917;51.256;7.152;2023-02-18T01:37:51;24.93;;;15.47;;
19543;SDS011;9917;51.256;7.152;2023-02-18T01:40:19;23.67;;;14.43;;
19543;SDS011;9917;51.256;7.152;2023-02-18T01:42:46;27.40;;;16.83;;
19543;SDS011;9917;51.256;7.152;2023-02-18T01:45:39;26.90;;;15.03;;
19543;SDS011;9917;51.256;7.152;2023-02-18T01:48:16;25.73;;;15.57;;
19543;SDS011;9917;51.256;7.152;2023-02-18T01:50:46;28.27;;;16.30;;
19543;SDS011;9917;51.256;7.152;2023-02-18T01:53:16;26.87;;;16.13;;
19543;SDS011;9917;51.256;7.152;2023-02-18T01:55:45;23.43;;;14.63;;
19543;SDS011;9917;51.256;7.152;2023-02-18T01:58:12;29.40;;;15.83;;
19543;SDS011;9917;51.256;7.152;2023-02-18T02:00:41;25.57;;;16.00;;
19543;SDS011;9917;51.256;7.152;2023-02-18T02:03:06;26.03;;;14.63;;
19543;SDS011;9917;51.256;7.152;2023-02-18T02:05:32;25.00;;;15.27;;
19543;SDS011;9917;51.256;7.152;2023-02-18T02:07:58;22.03;;;13.43;;
19543;SDS011;9917;51.256;7.152;2023-02-18T02:10:26;23.17;;;14.00;;
19543;SDS011;9917;51.256;7.152;2023-02-18T02:13:00;24.37;;;13.90;;
19543;SDS011;9917;51.256;7.152;2023-02-18T02:15:36;24.60;;;14.10;;
19543;SDS011;9917;51.256;7.152;2023-02-18T02:18:14;22.60;;;14.03;;
19543;SDS011;9917;51.256;7.152;2023-02-18T02:21:00;22.13;;;13.30;;
19543;SDS011;9917;51.256;7.152;2023-02-18T02:23:49;19.20;;;12.33;;
19543;SDS011;9917;51.256;7.152;2023-02-18T02:26:59;23.90;;;13.17;;
19543;SDS011;9917;51.256;7.152;2023-02-18T02:29:46;21.33;;;12.33;;
19543;SDS011;9917;51.256;7.152;2023-02-18T02:32:45;20.63;;;10.63;;
19543;SDS011;9917;51.256;7.152;2023-02-18T02:35:28;18.60;;;11.20;;
19543;SDS011;9917;51.256;7.152;2023-02-18T02:38:00;21.47;;;11.60;;
19543;SDS011;9917;51.256;7.152;2023-02-18T02:40:32;18.40;;;11.13;;
19543;SDS011;9917;51.256;7.152;2023-02-18T02:43:04;17.67;;;11.30;;
19543;SDS011;9917;51.256;7.152;2023-02-18T02:45:38;15.47;;;10.33;;
19543;SDS011;9917;51.256;7.152;2023-02-18T02:48:14;17.47;;;10.57;;
19543;SDS011;9917;51.256;7.152;2023-02-18T02:50:49;15.80;;;10.20;;
19543;SDS011;9917;51.256;7.152;2023-02-18T02:53:20;16.30;;;9.83;;
19543;SDS011;9917;51.256;7.152;2023-02-18T02:55:50;14.13;;;9.40;;
19543;SDS011;9917;51.256;7.152;2023-02-18T02:58:17;14.63;;;9.07;;
19543;SDS011;9917;51.256;7.152;2023-02-18T03:00:47;12.30;;;7.67;;
19543;SDS011;9917;51.256;7.152;2023-02-18T03:03:28;12.47;;;7.33;;
19543;SDS011;9917;51.256;7.152;2023-02-18T03:06:25;11.57;;;7.47;;
19543;SDS011;9917;51.256;7.152;2023-02-18T03:09:02;10.87;;;6.37;;
19543;SDS011;9917;51.256;7.152;2023-02-18T03:11:34;10.97;;;6.17;;
19543;SDS011;9917;51.256;7.152;2023-02-18T03:14:09;10.80;;;6.53;;
19543;SDS011;9917;51.256;7.152;2023-02-18T03:16:43;10.47;;;6.23;;
19543;SDS011;9917;51.256;7.152;2023-02-18T03:19:18;9.03;;;5.93;;
19543;SDS011;9917;51.256;7.152;2023-02-18T03:21:48;10.70;;;6.33;;
19543;SDS011;9917;51.256;7.152;2023-02-18T03:24:22;11.43;;;6.13;;
19543;SDS011;9917;51.256;7.152;2023-02-18T03:26:51;11.57;;;5.77;;
19543;SDS011;9917;51.256;7.152;2023-02-18T03:29:20;14.37;;;7.97;;
19543;SDS011;9917;51.256;7.152;2023-02-18T03:31:48;14.03;;;8.00;;
19543;SDS011;9917;51.256;7.152;2023-02-18T03:34:19;13.80;;;7.37;;
19543;SDS011;9917;51.256;7.152;2023-02-18T03:36:50;15.53;;;7.90;;
19543;SDS011;9917;51.256;7.152;2023-02-18T03:39:19;13.27;;;7.47;;
19543;SDS011;9917;51.256;7.152;2023-02-18T03:41:47;14.73;;;8.07;;
19543;SDS011;9917;51.256;7.152;2023-02-18T03:44:14;13.50;;;7.80;;
19543;SDS011;9917;51.256;7.152;2023-02-18T03:46:41;15.17;;;8.70;;
19543;SDS011;9917;51.256;7.152;2023-02-18T03:49:08;10.80;;;6.53;;
19543;SDS011;9917;51.256;7.152;2023-02-18T03:51:34;12.20;;;6.83;;
19543;SDS011;9917;51.256;7.152;2023-02-18T03:54:01;12.60;;;6.80;;
19543;SDS011;9917;51.256;7.152;2023-02-18T03:56:27;9.30;;;5.50;;
19543;SDS011;9917;51.256;7.152;2023-02-18T03:58:52;9.50;;;5.17;;
19543;SDS011;9917;51.256;7.152;2023-02-18T04:01:18;8.67;;;5.00;;
19543;SDS011;9917;51.256;7.152;2023-02-18T04:06:22;9.67;;;5.00;;
19543;SDS011;9917;51.256;7.152;2023-02-18T04:08:49;6.80;;;3.97;;
19543;SDS011;9917;51.256;7.152;2023-02-18T04:11:16;4.83;;;3.33;;
19543;SDS011;9917;51.256;7.152;2023-02-18T04:13:42;5.43;;;3.10;;
19543;SDS011;9917;51.256;7.152;2023-02-18T04:16:08;5.93;;;3.23;;
19543;SDS011;9917;51.256;7.152;2023-02-18T04:18:34;6.60;;;3.17;;
19543;SDS011;9917;51.256;7.152;2023-02-18T04:20:59;6.97;;;3.37;;
19543;SDS011;9917;51.256;7.152;2023-02-18T04:23:26;5.07;;;2.90;;
19543;SDS011;9917;51.256;7.152;2023-02-18T04:25:51;4.10;;;2.80;;
19543;SDS011;9917;51.256;7.152;2023-02-18T04:28:19;4.17;;;2.57;;
19543;SDS011;9917;51.256;7.152;2023-02-18T04:30:45;4.87;;;2.77;;
19543;SDS011;9917;51.256;7.152;2023-02-18T04:33:12;4.33;;;2.87;;
19543;SDS011;9917;51.256;7.152;2023-02-18T04:35:38;4.50;;;2.70;;
19543;SDS011;9917;51.256;7.152;2023-02-18T04:38:04;5.47;;;2.40;;
19543;SDS011;9917;51.256;7.152;2023-02-18T04:40:30;3.63;;;2.17;;
19543;SDS011;9917;51.256;7.152;2023-02-18T04:42:55;3.67;;;2.33;;
19543;SDS011;9917;51.256;7.152;2023-02-18T04:45:23;3.13;;;1.80;;
19543;SDS011;9917;51.256;7.152;2023-02-18T04:47:49;2.73;;;1.77;;
19543;SDS011;9917;51.256;7.152;2023-02-18T04:50:15;3.80;;;2.20;;
19543;SDS011;9917;51.256;7.152;2023-02-18T04:52:41;7.50;;;1.80;;
19543;SDS011;9917;51.256;7.152;2023-02-18T04:55:07;2.50;;;1.57;;
19543;SDS011;9917;51.256;7.152;2023-02-18T04:57:33;2.77;;;1.90;;
19543;SDS011;9917;51.256;7.152;2023-02-18T04:59:59;2.37;;;1.63;;
19543;SDS011;9917;51.256;7.152;2023-02-18T05:02:26;2.27;;;1.50;;
19543;SDS011;9917;51.256;7.152;2023-02-18T05:04:52;2.13;;;1.37;;
19543;SDS011;9917;51.256;7.152;2023-02-18T05:07:18;2.20;;;1.33;;
19543;SDS011;9917;51.256;7.152;2023-02-18T05:09:44;1.67;;;1.13;;
19543;SDS011;9917;51.256;7.152;2023-02-18T05:12:10;1.50;;;1.10;;
19543;SDS011;9917;51.256;7.152;2023-02-18T05:14:38;2.63;;;1.20;;
19543;SDS011;9917;51.256;7.152;2023-02-18T05:17:04;1.90;;;1.10;;
19543;SDS011;9917;51.256;7.152;2023-02-18T05:19:31;1.90;;;1.17;;
19543;SDS011;9917;51.256;7.152;2023-02-18T05:21:57;1.80;;;1.20;;
19543;SDS011;9917;51.256;7.152;2023-02-18T05:24:23;2.43;;;1.60;;
19543;SDS011;9917;51.256;7.152;2023-02-18T05:26:49;2.00;;;1.20;;
19543;SDS011;9917;51.256;7.152;2023-02-18T05:29:15;2.43;;;1.67;;
19543;SDS011;9917;51.256;7.152;2023-02-18T05:31:41;2.43;;;1.60;;
19543;SDS011;9917;51.256;7.152;2023-02-18T05:34:07;1.90;;;1.13;;
19543;SDS011;9917;51.256;7.152;2023-02-18T05:36:34;2.20;;;1.50;;
19543;SDS011;9917;51.256;7.152;2023-02-18T05:39:00;2.10;;;1.27;;
19543;SDS011;9917;51.256;7.152;2023-02-18T05:41:28;2.60;;;1.10;;
19543;SDS011;9917;51.256;7.152;2023-02-18T05:43:54;2.57;;;1.70;;
19543;SDS011;9917;51.256;7.152;2023-02-18T05:46:20;1.97;;;1.20;;
19543;SDS011;9917;51.256;7.152;2023-02-18T05:48:46;3.13;;;1.57;;
19543;SDS011;9917;51.256;7.152;2023-02-18T05:51:12;2.80;;;1.63;;
19543;SDS011;9917;51.256;7.152;2023-02-18T05:53:39;2.30;;;1.60;;
19543;SDS011;9917;51.256;7.152;2023-02-18T05:56:05;2.97;;;1.60;;
19543;SDS011;9917;51.256;7.152;2023-02-18T05:58:31;4.00;;;2.03;;
19543;SDS011;9917;51.256;7.152;2023-02-18T06:00:57;2.43;;;1.90;;
19543;SDS011;9917;51.256;7.152;2023-02-18T06:03:27;3.50;;;2.30;;
19543;SDS011;9917;51.256;7.152;2023-02-18T06:05:53;3.20;;;2.13;;
19543;SDS011;9917;51.256;7.152;2023-02-18T06:08:19;4.43;;;2.37;;
19543;SDS011;9917;51.256;7.152;2023-02-18T06:10:48;3.60;;;2.20;;
19543;SDS011;9917;51.256;7.152;2023-02-18T06:13:13;2.70;;;1.90;;
19543;SDS011;9917;51.256;7.152;2023-02-18T06:15:41;2.83;;;2.13;;
19543;SDS011;9917;51.256;7.152;2023-02-18T06:18:06;4.83;;;2.13;;
19543;SDS011;9917;51.256;7.152;2023-02-18T06:20:35;2.77;;;1.70;;
19543;SDS011;9917;51.256;7.152;2023-02-18T06:23:00;3.80;;;2.40;;
19543;SDS011;9917;51.256;7.152;2023-02-18T06:25:26;2.83;;;1.70;;
19543;SDS011;9917;51.256;7.152;2023-02-18T06:27:53;4.40;;;2.20;;
19543;SDS011;9917;51.256;7.152;2023-02-18T06:30:19;4.10;;;2.13;;
19543;SDS011;9917;51.256;7.152;2023-02-18T06:32:45;3.53;;;2.40;;
19543;SDS011;9917;51.256;7.152;2023-02-18T06:35:11;3.63;;;1.97;;
19543;SDS011;9917;51.256;7.152;2023-02-18T06:37:37;5.43;;;2.03;;
19543;SDS011;9917;51.256;7.152;2023-02-18T06:40:04;2.67;;;1.80;;
19543;SDS011;9917;51.256;7.152;2023-02-18T06:42:31;3.03;;;2.00;;
19543;SDS011;9917;51.256;7.152;2023-02-18T06:44:58;5.77;;;2.43;;
19543;SDS011;9917;51.256;7.152;2023-02-18T06:47:23;4.13;;;2.50;;
19543;SDS011;9917;51.256;7.152;2023-02-18T06:49:49;4.47;;;2.80;;
19543;SDS011;9917;51.256;7.152;2023-02-18T06:52:15;4.97;;;3.47;;
19543;SDS011;9917;51.256;7.152;2023-02-18T06:54:41;7.80;;;3.63;;
19543;SDS011;9917;51.256;7.152;2023-02-18T06:57:07;7.03;;;3.70;;
19543;SDS011;9917;51.256;7.152;2023-02-18T06:59:33;5.27;;;3.70;;
19543;SDS011;9917;51.256;7.152;2023-02-18T07:02:00;7.33;;;4.10;;
19543;SDS011;9917;51.256;7.152;2023-02-18T07:04:26;9.00;;;4.00;;
19543;SDS011;9917;51.256;7.152;2023-02-18T07:06:54;5.87;;;3.90;;
19543;SDS011;9917;51.256;7.152;2023-02-18T07:09:20;5.77;;;4.23;;
19543;SDS011;9917;51.256;7.152;2023-02-18T07:11:52;7.20;;;4.80;;
19543;SDS011;9917;51.256;7.152;2023-02-18T07:14:17;9.10;;;5.47;;
19543;SDS011;9917;51.256;7.152;2023-02-18T07:16:43;7.27;;;5.63;;
19543;SDS011;9917;51.256;7.152;2023-02-18T07:19:11;6.83;;;4.80;;
19543;SDS011;9917;51.256;7.152;2023-02-18T07:21:36;7.80;;;5.03;;
19543;SDS011;9917;51.256;7.152;2023-02-18T07:24:03;6.90;;;4.73;;
19543;SDS011;9917;51.256;7.152;2023-02-18T07:26:29;6.47;;;4.60;;
19543;SDS011;9917;51.256;7.152;2023-02-18T07:28:55;6.57;;;4.80;;
19543;SDS011;9917;51.256;7.152;2023-02-18T07:31:21;5.27;;;4.10;;
19543;SDS011;9917;51.256;7.152;2023-02-18T07:33:47;6.13;;;4.63;;
19543;SDS011;9917;51.256;7.152;2023-02-18T07:36:15;5.87;;;3.57;;
19543;SDS011;9917;51.256;7.152;2023-02-18T07:38:41;5.47;;;3.60;;
19543;SDS011;9917;51.256;7.152;2023-02-18T07:41:10;3.93;;;2.77;;
19543;SDS011;9917;51.256;7.152;2023-02-18T07:43:41;4.03;;;2.70;;
19543;SDS011;9917;51.256;7.152;2023-02-18T07:46:07;3.20;;;2.63;;
19543;SDS011;9917;51.256;7.152;2023-02-18T07:48:33;4.13;;;2.57;;
19543;SDS011;9917;51.256;7.152;2023-02-18T07:50:59;4.03;;;2.60;;
19543;SDS011;9917;51.256;7.152;2023-02-18T07:53:26;4.87;;;3.00;;
19543;SDS011;9917;51.256;7.152;2023-02-18T07:55:52;5.17;;;2.90;;
19543;SDS011;9917;51.256;7.152;2023-02-18T07:58:18;3.93;;;2.40;;
19543;SDS011;9917;51.256;7.152;2023-02-18T08:00:46;5.20;;;2.63;;
19543;SDS011;9917;51.256;7.152;2023-02-18T08:03:12;4.30;;;2.57;;
19543;SDS011;9917;51.256;7.152;2023-02-18T08:05:41;4.80;;;2.60;;
19543;SDS011;9917;51.256;7.152;2023-02-18T08:08:07;3.13;;;2.07;;
19543;SDS011;9917;51.256;7.152;2023-02-18T08:10:37;3.37;;;1.90;;
19543;SDS011;9917;51.256;7.152;2023-02-18T08:13:04;2.50;;;1.50;;
19543;SDS011;9917;51.256;7.152;2023-02-18T08:15:30;2.53;;;1.70;;
19543;SDS011;9917;51.256;7.152;2023-02-18T08:17:56;3.60;;;1.70;;
19543;SDS011;9917;51.256;7.152;2023-02-18T08:20:22;2.77;;;1.80;;
19543;SDS011;9917;51.256;7.152;2023-02-18T08:22:48;3.57;;;1.87;;
19543;SDS011;9917;51.256;7.152;2023-02-18T08:25:14;3.17;;;1.50;;
19543;SDS011;9917;51.256;7.152;2023-02-18T08:27:42;4.80;;;1.80;;
19543;SDS011;9917;51.256;7.152;2023-02-18T08:30:08;3.33;;;1.53;;
19543;SDS011;9917;51.256;7.152;2023-02-18T08:32:34;2.57;;;1.43;;
19543;SDS011;9917;51.256;7.152;2023-02-18T08:35:00;3.30;;;1.90;;
19543;SDS011;9917;51.256;7.152;2023-02-18T08:37:26;6.40;;;1.90;;
19543;SDS011;9917;51.256;7.152;2023-02-18T08:39:52;3.60;;;2.10;;
19543;SDS011;9917;51.256;7.152;2023-02-18T08:42:18;2.97;;;1.77;;
19543;SDS011;9917;51.256;7.152;2023-02-18T08:44:46;4.60;;;2.37;;
19543;SDS011;9917;51.256;7.152;2023-02-18T08:47:11;3.50;;;1.87;;
19543;SDS011;9917;51.256;7.152;2023-02-18T08:49:37;6.63;;;1.60;;
19543;SDS011;9917;51.256;7.152;2023-02-18T08:52:04;6.87;;;2.00;;
19543;SDS011;9917;51.256;7.152;2023-02-18T08:54:29;5.97;;;1.80;;
19543;SDS011;9917;51.256;7.152;2023-02-18T08:56:56;6.37;;;1.90;;
19543;SDS011;9917;51.256;7.152;2023-02-18T08:59:22;3.97;;;1.80;;
19543;SDS011;9917;51.256;7.152;2023-02-18T09:01:49;6.37;;;1.60;;
19543;SDS011;9917;51.256;7.152;2023-02-18T09:04:18;7.27;;;2.00;;
19543;SDS011;9917;51.256;7.152;2023-02-18T09:06:44;3.73;;;1.80;;
19543;SDS011;9917;51.256;7.152;2023-02-18T09:09:10;6.30;;;2.00;;
19543;SDS011;9917;51.256;7.152;2023-02-18T09:11:36;4.57;;;2.03;;
19543;SDS011;9917;51.256;7.152;2023-02-18T09:14:02;5.30;;;2.40;;
19543;SDS011;9917;51.256;7.152;2023-02-18T09:16:28;6.80;;;2.57;;
19543;SDS011;9917;51.256;7.152;2023-02-18T09:18:55;4.53;;;2.67;;
19543;SDS011;9917;51.256;7.152;2023-02-18T09:21:26;7.60;;;3.13;;
19543;SDS011;9917;51.256;7.152;2023-02-18T09:23:52;7.23;;;2.90;;
19543;SDS011;9917;51.256;7.152;2023-02-18T09:26:19;7.23;;;2.97;;
19543;SDS011;9917;51.256;7.152;2023-02-18T09:28:49;9.13;;;3.07;;
19543;SDS011;9917;51.256;7.152;2023-02-18T09:31:17;3.83;;;2.43;;
19543;SDS011;9917;51.256;7.152;2023-02-18T09:33:45;10.57;;;3.27;;
19543;SDS011;9917;51.256;7.152;2023-02-18T09:36:13;9.60;;;3.60;;
19543;SDS011;9917;51.256;7.152;2023-02-18T09:38:39;12.20;;;2.80;;
19543;SDS011;9917;51.256;7.152;2023-02-18T09:41:06;8.73;;;2.60;;
19543;SDS011;9917;51.256;7.152;2023-02-18T09:43:39;9.50;;;3.00;;
19543;SDS011;9917;51.256;7.152;2023-02-18T09:46:10;7.50;;;2.90;;
19543;SDS011;9917;51.256;7.152;2023-02-18T09:48:42;7.20;;;2.53;;
19543;SDS011;9917;51.256;7.152;2023-02-18T09:51:10;8.07;;;3.00;;
19543;SDS011;9917;51.256;7.152;2023-02-18T09:53:39;8.20;;;2.87;;
19543;SDS011;9917;51.256;7.152;2023-02-18T09:56:07;8.67;;;2.63;;
19543;SDS011;9917;51.256;7.152;2023-02-18T09:58:36;11.40;;;2.70;;
19543;SDS011;9917;51.256;7.152;2023-02-18T10:01:03;10.33;;;3.10;;
19543;SDS011;9917;51.256;7.152;2023-02-18T10:03:31;8.90;;;2.57;;
19543;SDS011;9917;51.256;7.152;2023-02-18T10:05:57;7.40;;;2.23;;
19543;SDS011;9917;51.256;7.152;2023-02-18T10:08:29;9.37;;;2.17;;
19543;SDS011;9917;51.256;7.152;2023-02-18T10:10:59;8.57;;;2.50;;
19543;SDS011;9917;51.256;7.152;2023-02-18T10:13:28;12.00;;;3.00;;
19543;SDS011;9917;51.256;7.152;2023-02-18T10:15:56;8.10;;;2.80;;
19543;SDS011;9917;51.256;7.152;2023-02-18T10:18:24;7.60;;;2.80;;
19543;SDS011;9917;51.256;7.152;2023-02-18T10:20:55;8.37;;;3.03;;
19543;SDS011;9917;51.256;7.152;2023-02-18T10:23:25;8.90;;;2.93;;
19543;SDS011;9917;51.256;7.152;2023-02-18T10:25:54;13.17;;;3.07;;
19543;SDS011;9917;51.256;7.152;2023-02-18T10:28:22;8.60;;;2.77;;
19543;SDS011;9917;51.256;7.152;2023-02-18T10:30:52;10.13;;;3.07;;
19543;SDS011;9917;51.256;7.152;2023-02-18T10:33:31;6.23;;;2.50;;
19543;SDS011;9917;51.256;7.152;2023-02-18T10:36:01;8.37;;;3.10;;
19543;SDS011;9917;51.256;7.152;2023-02-18T10:38:42;12.67;;;3.73;;
19543;SDS011;9917;51.256;7.152;2023-02-18T10:41:22;5.10;;;3.03;;
19543;SDS011;9917;51.256;7.152;2023-02-18T10:43:59;8.93;;;2.90;;
19543;SDS011;9917;51.256;7.152;2023-02-18T10:46:35;10.03;;;2.83;;
19543;SDS011;9917;51.256;7.152;2023-02-18T10:49:11;9.10;;;2.83;;
19543;SDS011;9917;51.256;7.152;2023-02-18T10:51:58;9.87;;;2.67;;
19543;SDS011;9917;51.256;7.152;2023-02-18T10:54:48;10.77;;;3.20;;
19543;SDS011;9917;51.256;7.152;2023-02-18T10:57:17;6.30;;;2.57;;
19543;SDS011;9917;51.256;7.152;2023-02-18T10:59:53;8.80;;;3.53;;
19543;SDS011;9917;51.256;7.152;2023-02-18T11:02:23;15.60;;;3.47;;
19543;SDS011;9917;51.256;7.152;2023-02-18T11:04:52;5.80;;;3.03;;
19543;SDS011;9917;51.256;7.152;2023-02-18T11:07:18;5.43;;;2.83;;
19543;SDS011;9917;51.256;7.152;2023-02-18T11:09:48;8.50;;;2.67;;
19543;SDS011;9917;51.256;7.152;2023-02-18T11:12:18;6.33;;;2.50;;
19543;SDS011;9917;51.256;7.152;2023-02-18T11:14:47;8.23;;;2.80;;
19543;SDS011;9917;51.256;7.152;2023-02-18T11:17:19;9.30;;;2.77;;
19543;SDS011;9917;51.256;7.152;2023-02-18T11:19:53;9.60;;;2.70;;
19543;SDS011;9917;51.256;7.152;2023-02-18T11:22:21;6.63;;;2.63;;
19543;SDS011;9917;51.256;7.152;2023-02-18T11:24:55;12.20;;;2.87;;
19543;SDS011;9917;51.256;7.152;2023-02-18T11:27:25;9.17;;;2.90;;
19543;SDS011;9917;51.256;7.152;2023-02-18T11:30:00;6.93;;;3.27;;
19543;SDS011;9917;51.256;7.152;2023-02-18T11:32:29;9.67;;;3.43;;
19543;SDS011;9917;51.256;7.152;2023-02-18T11:35:01;6.93;;;3.90;;
19543;SDS011;9917;51.256;7.152;2023-02-18T11:37:27;5.57;;;3.50;;
19543;SDS011;9917;51.256;7.152;2023-02-18T11:39:59;7.23;;;3.80;;
19543;SDS011;9917;51.256;7.152;2023-02-18T11:42:31;6.90;;;3.43;;
19543;SDS011;9917;51.256;7.152;2023-02-18T11:44:58;7.67;;;3.10;;
19543;SDS011;9917;51.256;7.152;2023-02-18T11:47:27;5.53;;;2.73;;
19543;SDS011;9917;51.256;7.152;2023-02-18T11:50:02;5.77;;;2.57;;
19543;SDS011;9917;51.256;7.152;2023-02-18T11:52:44;2.83;;;2.00;;
19543;SDS011;9917;51.256;7.152;2023-02-18T11:55:15;8.33;;;2.60;;
19543;SDS011;9917;51.256;7.152;2023-02-18T11:57:43;6.50;;;2.10;;
19543;SDS011;9917;51.256;7.152;2023-02-18T12:00:18;4.47;;;2.33;;
19543;SDS011;9917;51.256;7.152;2023-02-18T12:02:50;4.43;;;2.50;;
19543;SDS011;9917;51.256;7.152;2023-02-18T12:05:20;3.20;;;2.63;;
19543;SDS011;9917;51.256;7.152;2023-02-18T12:07:49;4.57;;;2.80;;
19543;SDS011;9917;51.256;7.152;2023-02-18T12:10:27;5.33;;;2.27;;
19543;SDS011;9917;51.256;7.152;2023-02-18T12:13:00;4.73;;;2.40;;
19543;SDS011;9917;51.256;7.152;2023-02-18T12:15:36;2.90;;;2.10;;
19543;SDS011;9917;51.256;7.152;2023-02-18T12:18:18;4.40;;;2.20;;
19543;SDS011;9917;51.256;7.152;2023-02-18T12:20:53;7.03;;;2.63;;
19543;SDS011;9917;51.256;7.152;2023-02-18T12:23:34;4.57;;;2.10;;
19543;SDS011;9917;51.256;7.152;2023-02-18T12:26:10;4.77;;;2.20;;
19543;SDS011;9917;51.256;7.152;2023-02-18T12:28:49;3.53;;;2.70;;
19543;SDS011;9917;51.256;7.152;2023-02-18T12:31:29;5.53;;;2.60;;
19543;SDS011;9917;51.256;7.152;2023-02-18T12:34:11;5.00;;;2.47;;
19543;SDS011;9917;51.256;7.152;2023-02-18T12:36:50;4.60;;;2.10;;
19543;SDS011;9917;51.256;7.152;2023-02-18T12:39:26;3.93;;;2.77;;
19543;SDS011;9917;51.256;7.152;2023-02-18T12:42:08;5.53;;;2.33;;
19543;SDS011;9917;51.256;7.152;2023-02-18T12:44:51;4.13;;;2.37;;
19543;SDS011;9917;51.256;7.152;2023-02-18T12:47:37;4.00;;;2.33;;
19543;SDS011;9917;51.256;7.152;2023-02-18T12:50:20;4.10;;;1.80;;
19543;SDS011;9917;51.256;7.152;2023-02-18T12:53:09;3.83;;;2.27;;
19543;SDS011;9917;51.256;7.152;2023-02-18T12:55:55;5.27;;;2.70;;
19543;SDS011;9917;51.256;7.152;2023-02-18T12:58:37;3.20;;;2.20;;
19543;SDS011;9917;51.256;7.152;2023-02-18T13:04:02;4.40;;;2.47;;
19543;SDS011;9917;51.256;7.152;2023-02-18T13:09:45;3.60;;;2.53;;
19543;SDS011;9917;51.256;7.152;2023-02-18T13:12:26;3.63;;;2.07;;
19543;SDS011;9917;51.256;7.152;2023-02-18T13:15:04;5.10;;;2.27;;
19543;SDS011;9917;51.256;7.152;2023-02-18T13:17:37;3.70;;;2.27;;
19543;SDS011;9917;51.256;7.152;2023-02-18T13:20:07;4.00;;;2.53;;
19543;SDS011;9917;51.256;7.152;2023-02-18T13:22:42;4.87;;;2.50;;
19543;SDS011;9917;51.256;7.152;2023-02-18T13:25:10;4.53;;;2.63;;
19543;SDS011;9917;51.256;7.152;2023-02-18T13:27:39;3.90;;;2.90;;
19543;SDS011;9917;51.256;7.152;2023-02-18T13:33:05;8.13;;;3.00;;
19543;SDS011;9917;51.256;7.152;2023-02-18T13:35:38;7.63;;;3.60;;
19543;SDS011;9917;51.256;7.152;2023-02-18T13:38:11;3.97;;;2.90;;
19543;SDS011;9917;51.256;7.152;2023-02-18T13:40:49;5.13;;;3.00;;
19543;SDS011;9917;51.256;7.152;2023-02-18T13:43:16;3.93;;;3.07;;
19543;SDS011;9917;51.256;7.152;2023-02-18T13:46:00;4.93;;;3.20;;
19543;SDS011;9917;51.256;7.152;2023-02-18T13:48:28;6.27;;;3.20;;
19543;SDS011;9917;51.256;7.152;2023-02-18T13:50:54;7.13;;;3.50;;
19543;SDS011;9917;51.256;7.152;2023-02-18T13:53:27;4.57;;;3.27;;
19543;SDS011;9917;51.256;7.152;2023-02-18T13:55:56;5.40;;;3.20;;
19543;SDS011;9917;51.256;7.152;2023-02-18T13:58:41;5.33;;;3.53;;
19543;SDS011;9917;51.256;7.152;2023-02-18T14:01:19;5.10;;;3.40;;
19543;SDS011;9917;51.256;7.152;2023-02-18T14:03:59;4.73;;;3.23;;
19543;SDS011;9917;51.256;7.152;2023-02-18T14:06:27;4.87;;;3.27;;
19543;SDS011;9917;51.256;7.152;2023-02-18T14:09:03;9.93;;;4.03;;
19543;SDS011;9917;51.256;7.152;2023-02-18T14:11:47;4.90;;;3.20;;
19543;SDS011;9917;51.256;7.152;2023-02-18T14:14:38;4.43;;;2.90;;
19543;SDS011;9917;51.256;7.152;2023-02-18T14:22:54;7.17;;;4.23;;
19543;SDS011;9917;51.256;7.152;2023-02-18T14:25:21;5.53;;;4.40;;
19543;SDS011;9917;51.256;7.152;2023-02-18T14:27:55;9.63;;;4.27;;
19543;SDS011;9917;51.256;7.152;2023-02-18T14:30:28;8.63;;;5.10;;
19543;SDS011;9917;51.256;7.152;2023-02-18T14:33:01;7.63;;;5.80;;
19543;SDS011;9917;51.256;7.152;2023-02-18T14:35:28;8.60;;;4.80;;
19543;SDS011;9917;51.256;7.152;2023-02-18T14:38:05;8.60;;;5.30;;
19543;SDS011;9917;51.256;7.152;2023-02-18T14:40:59;11.10;;;4.97;;
19543;SDS011;9917;51.256;7.152;2023-02-18T14:44:10;9.37;;;5.37;;
19543;SDS011;9917;51.256;7.152;2023-02-18T14:46:50;9.07;;;5.07;;
19543;SDS011;9917;51.256;7.152;2023-02-18T14:49:34;8.07;;;5.00;;
19543;SDS011;9917;51.256;7.152;2023-02-18T14:52:04;10.80;;;5.27;;
19543;SDS011;9917;51.256;7.152;2023-02-18T14:54:35;10.13;;;5.07;;
19543;SDS011;9917;51.256;7.152;2023-02-18T14:57:03;8.50;;;4.87;;
19543;SDS011;9917;51.256;7.152;2023-02-18T14:59:33;8.37;;;5.00;;
19543;SDS011;9917;51.256;7.152;2023-02-18T15:02:01;11.43;;;4.87;;
19543;SDS011;9917;51.256;7.152;2023-02-18T15:04:27;6.27;;;4.53;;
19543;SDS011;9917;51.256;7.152;2023-02-18T15:07:07;9.50;;;5.30;;
19543;SDS011;9917;51.256;7.152;2023-02-18T15:09:43;8.23;;;5.10;;
19543;SDS011;9917;51.256;7.152;2023-02-18T15:12:11;9.60;;;5.13;;
19543;SDS011;9917;51.256;7.152;2023-02-18T15:14:41;9.67;;;5.27;;
19543;SDS011;9917;51.256;7.152;2023-02-18T15:17:11;9.23;;;5.63;;
19543;SDS011;9917;51.256;7.152;2023-02-18T15:19:42;9.63;;;5.43;;
19543;SDS011;9917;51.256;7.152;2023-02-18T15:22:18;11.40;;;5.83;;
19543;SDS011;9917;51.256;7.152;2023-02-18T15:24:46;10.60;;;5.27;;
19543;SDS011;9917;51.256;7.152;2023-02-18T15:27:13;9.13;;;5.50;;
19543;SDS011;9917;51.256;7.152;2023-02-18T15:29:40;8.97;;;5.30;;